createdAt,value
2018-06-07T00:00:44.146Z,11.73
2018-06-07T00:03:13.599Z,13.03
2018-06-07T00:05:42.735Z,11.67
2018-06-07T00:08:11.954Z,12.43
2018-06-07T00:10:41.375Z,13.30
2018-06-07T00:13:09.842Z,11.80
2018-06-07T00:15:39.034Z,14.17
2018-06-07T00:18:07.862Z,12.90
2018-06-07T00:20:36.658Z,12.03
2018-06-07T00:23:06.548Z,12.30
2018-06-07T00:25:35.058Z,14.37
2018-06-07T00:28:08.616Z,13.57
2018-06-07T00:30:38.243Z,12.57
2018-06-07T00:33:07.438Z,13.67
2018-06-07T00:35:41.374Z,14.07
2018-06-07T00:38:10.159Z,13.50
2018-06-07T00:40:39.595Z,14.77
2018-06-07T00:43:08.522Z,13.83
2018-06-07T00:45:37.782Z,14.73
2018-06-07T00:48:06.519Z,16.17
2018-06-07T00:50:35.746Z,14.50
2018-06-07T00:53:04.574Z,16.63
2018-06-07T00:55:33.569Z,13.73
2018-06-07T00:58:02.091Z,13.90
2018-06-07T01:00:31.984Z,17.47
2018-06-07T01:03:00.434Z,14.60
2018-06-07T01:05:30.319Z,15.10
2018-06-07T01:07:59.019Z,14.73
2018-06-07T01:10:27.502Z,14.87
2018-06-07T01:12:56.338Z,14.70
2018-06-07T01:15:24.867Z,14.77
2018-06-07T01:17:53.625Z,15.80
2018-06-07T01:20:23.794Z,15.17
2018-06-07T01:22:52.284Z,15.00
2018-06-07T01:25:20.795Z,13.93
2018-06-07T01:27:49.574Z,13.80
2018-06-07T01:30:33.351Z,14.90
2018-06-07T01:33:33.073Z,15.23
2018-06-07T01:36:01.929Z,14.73
2018-06-07T01:38:41.905Z,14.77
2018-06-07T01:41:10.835Z,15.80
2018-06-07T01:43:39.722Z,14.13
2018-06-07T01:46:08.396Z,14.43
2018-06-07T01:48:36.925Z,15.03
2018-06-07T01:51:05.635Z,15.03
2018-06-07T01:53:34.481Z,16.43
2018-06-07T01:56:02.967Z,18.03
2018-06-07T01:58:32.390Z,14.17
2018-06-07T02:01:00.870Z,16.40
2018-06-07T02:03:29.382Z,16.90
2018-06-07T02:05:58.767Z,15.33
2018-06-07T02:08:27.477Z,15.10
2018-06-07T02:10:56.618Z,14.63
2018-06-07T02:13:25.322Z,14.77
2018-06-07T02:15:53.827Z,20.07
2018-06-07T02:18:23.645Z,16.27
2018-06-07T02:20:53.098Z,14.07
2018-06-07T02:23:21.588Z,16.40
2018-06-07T02:25:50.408Z,14.77
2018-06-07T02:28:19.136Z,14.73
2018-06-07T02:30:47.618Z,15.33
2018-06-07T02:33:16.092Z,17.33
2018-06-07T02:35:45.435Z,16.77
2018-06-07T02:38:14.695Z,13.77
2018-06-07T02:40:43.434Z,15.90
2018-06-07T02:43:11.927Z,14.30
2018-06-07T02:45:41.315Z,15.73
2018-06-07T02:48:10.257Z,15.13
2018-06-07T02:50:38.714Z,21.57
2018-06-07T02:53:07.228Z,15.87
2018-06-07T02:55:35.730Z,17.63
2018-06-07T02:58:04.202Z,15.63
2018-06-07T03:00:33.562Z,14.97
2018-06-07T03:03:02.011Z,15.33
2018-06-07T03:05:31.210Z,15.93
2018-06-07T03:07:59.671Z,15.90
2018-06-07T03:10:28.372Z,15.80
2018-06-07T03:12:57.279Z,16.07
2018-06-07T03:15:26.567Z,15.80
2018-06-07T03:17:55.802Z,16.23
2018-06-07T03:20:24.612Z,15.00
2018-06-07T03:22:55.375Z,16.13
2018-06-07T03:25:24.238Z,15.33
2018-06-07T03:27:54.035Z,14.57
2018-06-07T03:30:23.315Z,15.37
2018-06-07T03:32:51.782Z,15.63
2018-06-07T03:35:20.852Z,14.07
2018-06-07T03:37:49.570Z,15.80
2018-06-07T03:40:18.046Z,14.73
2018-06-07T03:42:46.890Z,14.70
2018-06-07T03:45:16.999Z,14.27
2018-06-07T03:47:45.508Z,14.83
2018-06-07T03:50:13.987Z,16.67
2018-06-07T03:52:42.886Z,17.83
2018-06-07T03:55:12.390Z,17.90
2018-06-07T03:57:40.902Z,14.40
2018-06-07T04:00:09.429Z,24.20
2018-06-07T04:02:37.934Z,14.93
2018-06-07T04:05:07.191Z,15.17
2018-06-07T04:07:35.906Z,14.77
2018-06-07T04:10:04.446Z,16.80
2018-06-07T04:12:33.302Z,13.63
2018-06-07T04:15:01.764Z,17.53
2018-06-07T04:17:30.487Z,17.03
2018-06-07T04:19:58.950Z,15.93
2018-06-07T04:22:28.527Z,14.83
2018-06-07T04:24:57.270Z,15.20
2018-06-07T04:27:25.706Z,17.33
2018-06-07T04:29:54.280Z,17.50
2018-06-07T04:32:22.794Z,13.83
2018-06-07T04:34:52.439Z,15.40
2018-06-07T04:37:20.899Z,15.00
2018-06-07T04:39:49.798Z,13.73
2018-06-07T04:42:18.298Z,16.33
2018-06-07T04:44:47.498Z,16.37
2018-06-07T04:47:16.420Z,14.77
2018-06-07T04:49:46.430Z,15.63
2018-06-07T04:52:15.863Z,16.83
2018-06-07T04:54:45.045Z,14.90
2018-06-07T04:57:14.318Z,16.33
2018-06-07T04:59:43.019Z,15.10
2018-06-07T05:02:11.651Z,14.93
2018-06-07T05:04:41.437Z,15.63
2018-06-07T05:07:10.374Z,15.03
2018-06-07T05:09:38.845Z,17.00
2018-06-07T05:12:07.452Z,17.23
2018-06-07T05:14:36.131Z,18.90
2018-06-07T05:17:05.634Z,19.63
2018-06-07T05:19:35.215Z,14.67
2018-06-07T05:22:04.821Z,15.27
2018-06-07T05:24:33.290Z,14.83
2018-06-07T05:27:01.815Z,16.03
2018-06-07T05:29:31.717Z,14.40
2018-06-07T05:32:00.602Z,14.00
2018-06-07T05:34:29.274Z,17.67
2018-06-07T05:36:58.945Z,16.53
2018-06-07T05:39:27.443Z,13.40
2018-06-07T05:41:56.651Z,14.43
2018-06-07T05:44:25.822Z,17.90
2018-06-07T05:46:54.931Z,13.20
2018-06-07T05:49:24.423Z,17.07
2018-06-07T05:51:52.995Z,13.40
2018-06-07T05:54:24.167Z,17.20
2018-06-07T05:56:54.334Z,17.33
2018-06-07T05:59:23.061Z,16.23
2018-06-07T06:01:51.610Z,17.23
2018-06-07T06:04:20.689Z,17.30
2018-06-07T06:06:49.184Z,13.47
2018-06-07T06:09:17.868Z,17.00
2018-06-07T06:11:46.577Z,15.17
2018-06-07T06:14:15.206Z,17.53
2018-06-07T06:16:45.073Z,17.90
2018-06-07T06:19:13.798Z,15.03
2018-06-07T06:21:42.233Z,18.10
2018-06-07T06:24:11.385Z,14.40
2018-06-07T06:26:40.419Z,13.13
2018-06-07T06:29:09.772Z,13.17
2018-06-07T06:31:39.450Z,16.73
2018-06-07T06:34:09.550Z,13.40
2018-06-07T06:36:38.046Z,16.63
2018-06-07T06:39:07.901Z,12.57
2018-06-07T06:41:39.066Z,13.87
2018-06-07T06:44:07.987Z,15.07
2018-06-07T06:46:37.911Z,12.63
2018-06-07T06:49:07.601Z,12.75
2018-06-07T06:51:36.649Z,18.57
2018-06-07T06:54:05.726Z,13.43
2018-06-07T06:56:34.479Z,15.25
2018-06-07T06:59:03.541Z,13.62
2018-06-07T07:01:32.591Z,16.95
2018-06-07T07:04:01.583Z,11.97
2018-06-07T07:06:31.264Z,14.28
2018-06-07T07:09:00.343Z,14.03
2018-06-07T07:11:30.545Z,14.53
2018-06-07T07:13:59.556Z,12.68
2018-06-07T07:16:28.582Z,12.33
2018-06-07T07:18:57.589Z,13.45
2018-06-07T07:21:27.679Z,12.05
2018-06-07T07:23:57.325Z,12.23
2018-06-07T07:26:28.487Z,15.38
2018-06-07T07:28:58.906Z,12.43
2018-06-07T07:34:43.596Z,13.75
2018-06-07T07:37:12.694Z,14.33
2018-06-07T07:39:42.199Z,13.72
2018-06-07T07:42:11.267Z,14.58
2018-06-07T07:44:42.024Z,14.60
2018-06-07T07:47:11.092Z,15.05
2018-06-07T07:49:40.200Z,13.90
2018-06-07T07:52:09.306Z,14.73
2018-06-07T07:54:39.077Z,14.83
2018-06-07T07:57:09.054Z,14.43
2018-06-07T07:59:38.153Z,14.78
2018-06-07T08:02:10.467Z,14.53
2018-06-07T08:04:40.511Z,14.83
2018-06-07T08:07:10.770Z,14.80
2018-06-07T08:09:41.174Z,15.10
2018-06-07T08:12:10.974Z,16.65
2018-06-07T08:14:40.726Z,15.53
2018-06-07T08:17:10.047Z,15.58
2018-06-07T08:19:39.093Z,15.53
2018-06-07T08:22:08.701Z,14.13
2018-06-07T08:24:38.032Z,15.55
2018-06-07T08:27:07.318Z,15.75
2018-06-07T08:29:36.906Z,16.55
2018-06-07T08:32:06.306Z,15.85
2018-06-07T08:34:36.583Z,15.55
2018-06-07T08:37:05.708Z,15.28
2018-06-07T08:39:36.201Z,15.68
2018-06-07T08:42:05.806Z,15.58
2018-06-07T08:44:35.581Z,16.80
2018-06-07T08:47:04.850Z,15.38
2018-06-07T08:49:36.023Z,14.03
2018-06-07T08:52:06.607Z,14.07
2018-06-07T08:54:36.774Z,14.40
2018-06-07T08:57:07.751Z,14.00
2018-06-07T08:59:37.095Z,14.28
2018-06-07T09:02:08.107Z,14.73
2018-06-07T09:04:37.584Z,16.05
2018-06-07T09:07:11.822Z,15.65
2018-06-07T09:09:42.499Z,20.52
2018-06-07T09:12:12.788Z,14.95
2018-06-07T09:14:43.032Z,14.43
2018-06-07T09:17:12.978Z,14.85
2018-06-07T09:20:09.393Z,15.55
2018-06-07T09:22:40.278Z,15.80
2018-06-07T09:25:13.851Z,16.48
2018-06-07T09:27:56.156Z,15.28
2018-06-07T09:30:31.011Z,15.90
2018-06-07T09:33:05.372Z,15.28
2018-06-07T09:35:36.966Z,17.17
2018-06-07T09:38:06.059Z,16.55
2018-06-07T09:40:36.279Z,16.15
2018-06-07T09:43:06.451Z,13.53
2018-06-07T09:45:36.246Z,17.15
2018-06-07T09:48:05.322Z,16.60
2018-06-07T09:50:35.493Z,18.63
2018-06-07T09:53:04.067Z,15.70
2018-06-07T09:55:33.235Z,15.70
2018-06-07T09:58:01.965Z,15.23
2018-06-07T10:00:31.877Z,16.43
2018-06-07T10:03:00.406Z,17.33
2018-06-07T10:05:31.554Z,16.13
2018-06-07T10:08:01.126Z,14.47
2018-06-07T10:10:30.334Z,20.53
2018-06-07T10:12:58.814Z,17.60
2018-06-07T10:15:27.312Z,17.77
2018-06-07T10:17:55.798Z,15.27
2018-06-07T10:20:24.690Z,18.13
2018-06-07T10:22:54.094Z,17.57
2018-06-07T10:25:22.976Z,16.60
2018-06-07T10:27:51.470Z,17.97
2018-06-07T10:30:20.731Z,16.20
2018-06-07T10:32:49.540Z,17.97
2018-06-07T10:35:18.524Z,17.00
2018-06-07T10:37:47.102Z,19.80
2018-06-07T10:40:15.589Z,16.50
2018-06-07T10:42:48.106Z,16.97
2018-06-07T10:45:17.786Z,17.90
2018-06-07T10:47:47.227Z,17.70
2018-06-07T10:50:17.100Z,19.47
2018-06-07T10:52:46.518Z,22.03
2018-06-07T10:55:19.942Z,17.33
2018-06-07T10:57:50.075Z,15.77
2018-06-07T11:00:18.722Z,17.20
2018-06-07T11:02:50.155Z,19.93
2018-06-07T11:05:20.010Z,16.33
2018-06-07T11:07:49.106Z,17.93
2018-06-07T11:10:18.314Z,19.73
2018-06-07T11:12:46.846Z,21.30
2018-06-07T11:15:24.823Z,18.67
2018-06-07T11:17:54.474Z,18.73
2018-06-07T11:20:26.147Z,17.07
2018-06-07T11:22:56.631Z,16.40
2018-06-07T11:25:25.150Z,17.87
2018-06-07T11:27:54.069Z,17.87
2018-06-07T11:31:58.253Z,18.50
2018-06-07T11:34:28.709Z,17.43
2018-06-07T11:36:57.463Z,17.07
2018-06-07T11:39:26.216Z,16.13
2018-06-07T11:41:54.734Z,17.53
2018-06-07T11:44:23.214Z,17.80
2018-06-07T11:46:51.715Z,18.83
2018-06-07T11:49:20.651Z,17.07
2018-06-07T11:51:51.436Z,16.90
2018-06-07T11:54:26.487Z,18.30
2018-06-07T12:02:11.994Z,18.27
2018-06-07T12:04:41.387Z,14.83
2018-06-07T12:07:12.146Z,13.43
2018-06-07T12:09:43.805Z,14.97
2018-06-07T12:12:13.566Z,15.17
2018-06-07T12:14:43.654Z,15.37
2018-06-07T12:17:15.662Z,13.60
2018-06-07T12:19:46.555Z,17.77
2018-06-07T12:22:17.842Z,14.87
2018-06-07T12:24:48.591Z,16.03
2018-06-07T12:27:21.799Z,16.00
2018-06-07T12:29:51.784Z,14.50
2018-06-07T12:32:21.569Z,13.67
2018-06-07T12:34:51.458Z,14.57
2018-06-07T12:37:21.484Z,12.30
2018-06-07T12:39:51.367Z,13.43
2018-06-07T12:42:20.970Z,14.07
2018-06-07T12:44:51.222Z,14.30
2018-06-07T12:47:20.691Z,15.20
2018-06-07T12:49:50.591Z,13.00
2018-06-07T12:52:20.070Z,13.70
2018-06-07T12:54:50.234Z,14.13
2018-06-07T12:57:19.281Z,14.17
2018-06-07T12:59:47.739Z,14.63
2018-06-07T13:02:16.922Z,14.33
2018-06-07T13:04:46.702Z,15.47
2018-06-07T13:07:17.154Z,16.67
2018-06-07T13:09:47.316Z,13.60
2018-06-07T13:12:16.690Z,15.73
2018-06-07T13:14:47.735Z,15.27
2018-06-07T13:17:17.032Z,13.97
2018-06-07T13:19:45.576Z,14.57
2018-06-07T13:22:14.942Z,13.87
2018-06-07T13:24:44.771Z,17.60
2018-06-07T13:27:15.465Z,20.43
2018-06-07T13:29:44.981Z,14.77
2018-06-07T13:32:14.887Z,17.27
2018-06-07T13:34:44.530Z,14.80
2018-06-07T13:37:16.006Z,16.17
2018-06-07T13:39:45.331Z,16.10
2018-06-07T13:42:15.202Z,15.37
2018-06-07T13:44:46.418Z,17.30
2018-06-07T13:51:36.112Z,15.37
2018-06-07T13:54:06.710Z,15.53
2018-06-07T13:56:36.395Z,16.63
2018-06-07T13:59:07.455Z,15.97
2018-06-07T14:01:38.096Z,15.30
2018-06-07T14:04:08.082Z,15.40
2018-06-07T14:06:38.821Z,15.13
2018-06-07T14:09:09.206Z,15.27
2018-06-07T14:11:38.590Z,14.27
2018-06-07T14:14:08.104Z,15.47
2018-06-07T14:16:38.491Z,15.57
2018-06-07T14:19:08.918Z,17.40
2018-06-07T14:21:38.510Z,16.30
2018-06-07T14:24:08.750Z,15.67
2018-06-07T14:26:39.861Z,16.13
2018-06-07T14:29:10.792Z,16.97
2018-06-07T14:31:40.323Z,16.53
2018-06-07T14:34:09.638Z,16.33
2018-06-07T14:36:40.578Z,16.37
2018-06-07T14:39:11.038Z,15.37
2018-06-07T14:41:40.831Z,16.50
2018-06-07T14:44:09.294Z,15.33
2018-06-07T14:46:39.634Z,16.43
2018-06-07T14:49:08.230Z,17.53
2018-06-07T14:51:37.304Z,17.43
2018-06-07T14:54:08.935Z,16.77
2018-06-07T14:56:39.141Z,15.90
2018-06-07T14:59:08.015Z,15.67
2018-06-07T15:01:38.233Z,16.10
2018-06-07T15:04:10.120Z,16.70
2018-06-07T15:06:40.598Z,15.30
2018-06-07T15:09:11.859Z,16.37
2018-06-07T15:11:44.127Z,16.57
2018-06-07T15:14:14.309Z,15.93
2018-06-07T15:16:45.496Z,16.20
2018-06-07T15:19:16.993Z,19.07
2018-06-07T15:21:45.868Z,18.77
2018-06-07T15:24:16.504Z,20.50
2018-06-07T15:26:46.401Z,21.70
2018-06-07T15:29:17.592Z,21.57
2018-06-07T15:31:46.142Z,19.03
2018-06-07T15:34:16.574Z,19.10
2018-06-07T15:36:46.454Z,19.90
2018-06-07T15:39:15.262Z,19.10
2018-06-07T15:41:45.124Z,17.47
2018-06-07T15:44:15.610Z,19.97
2018-06-07T15:46:45.970Z,18.20
2018-06-07T15:49:16.694Z,19.27
2018-06-07T15:51:45.554Z,19.07
2018-06-07T15:54:14.959Z,17.90
2018-06-07T15:56:45.114Z,17.23
2018-06-07T15:59:13.786Z,17.63
2018-06-07T16:01:42.710Z,16.70
2018-06-07T16:04:13.787Z,15.13
2018-06-07T16:06:43.395Z,17.40
2018-06-07T16:09:13.954Z,17.23
2018-06-07T16:11:45.886Z,17.87
2018-06-07T16:14:15.558Z,18.30
2018-06-07T16:16:46.575Z,26.47
2018-06-07T16:19:16.362Z,22.63
2018-06-07T16:21:46.338Z,21.37
2018-06-07T16:24:16.314Z,21.17
2018-06-07T16:26:45.754Z,23.93
2018-06-07T16:29:15.098Z,26.20
2018-06-07T16:31:45.532Z,31.63
2018-06-07T16:34:16.920Z,37.50
2018-06-07T16:36:46.765Z,31.13
2018-06-07T16:39:16.462Z,35.00
2018-06-07T16:41:46.070Z,33.60
2018-06-07T16:44:16.139Z,31.70
2018-06-07T16:46:46.939Z,38.37
2018-06-07T16:49:15.635Z,40.27
2018-06-07T16:51:45.684Z,36.83
2018-06-07T16:54:15.609Z,36.60
2018-06-07T16:56:45.979Z,32.33
2018-06-07T16:59:16.554Z,32.70
2018-06-07T17:01:46.674Z,36.60
2018-06-07T17:04:17.298Z,35.53
2018-06-07T17:06:48.759Z,35.03
2018-06-07T17:09:19.178Z,33.17
2018-06-07T17:11:50.203Z,31.70
2018-06-07T17:14:21.486Z,34.73
2018-06-07T17:16:54.222Z,34.27
2018-06-07T17:19:24.550Z,33.47
2018-06-07T17:21:56.022Z,33.30
2018-06-07T17:24:26.680Z,37.83
2018-06-07T17:26:55.446Z,35.53
2018-06-07T17:29:25.549Z,39.97
2018-06-07T17:31:55.380Z,37.70
2018-06-07T17:34:23.914Z,35.87
2018-06-07T17:36:54.042Z,33.10
2018-06-07T17:39:24.934Z,34.80
2018-06-07T17:41:53.413Z,35.23
2018-06-07T17:44:24.934Z,35.70
2018-06-07T17:46:56.116Z,34.87
2018-06-07T17:49:26.475Z,33.30
2018-06-07T17:51:57.694Z,33.20
2018-06-07T17:54:27.682Z,32.60
2018-06-07T17:56:59.245Z,34.30
2018-06-07T17:59:28.943Z,34.70
2018-06-07T18:01:59.810Z,38.90
2018-06-07T18:04:32.641Z,38.37
2018-06-07T18:07:03.994Z,39.87
2018-06-07T18:09:37.015Z,33.30
2018-06-07T18:12:07.155Z,31.20
2018-06-07T18:14:38.790Z,30.83
2018-06-07T18:17:09.715Z,27.20
2018-06-07T18:19:39.979Z,25.70
2018-06-07T18:22:10.923Z,27.93
2018-06-07T18:24:40.562Z,25.70
2018-06-07T18:27:11.216Z,24.23
2018-06-07T18:29:43.056Z,27.53
2018-06-07T18:32:13.465Z,26.47
2018-06-07T18:34:43.810Z,27.27
2018-06-07T18:37:14.304Z,25.60
2018-06-07T18:39:42.813Z,26.80
2018-06-07T18:42:11.290Z,27.03
2018-06-07T18:44:40.787Z,27.97
2018-06-07T18:47:09.245Z,25.90
2018-06-07T18:49:37.726Z,27.40
2018-06-07T18:52:06.187Z,30.00
2018-06-07T18:54:34.952Z,26.80
2018-06-07T18:57:03.561Z,28.37
2018-06-07T18:59:32.068Z,27.63
2018-06-07T19:02:00.514Z,25.93
2018-06-07T19:04:28.983Z,26.57
2018-06-07T19:06:57.480Z,25.53
2018-06-07T19:09:31.358Z,26.73
2018-06-07T19:11:59.819Z,27.00
2018-06-07T19:14:33.563Z,25.20
2018-06-07T19:17:03.042Z,25.10
2018-06-07T19:19:36.678Z,23.90
2018-06-07T19:22:05.627Z,23.73
2018-06-07T19:24:34.325Z,26.83
2018-06-07T19:27:08.624Z,29.00
2018-06-07T19:29:43.426Z,24.03
2018-06-07T19:32:18.916Z,24.80
2018-06-07T19:34:55.078Z,26.77
2018-06-07T19:37:24.526Z,22.43
2018-06-07T19:40:00.834Z,25.60
2018-06-07T19:42:30.994Z,23.67
2018-06-07T19:45:01.668Z,18.87
2018-06-07T19:47:32.962Z,18.23
2018-06-07T19:50:05.372Z,19.17
2018-06-07T19:52:35.950Z,20.13
2018-06-07T19:55:07.493Z,18.93
2018-06-07T19:57:38.802Z,17.00
2018-06-07T20:00:09.934Z,18.70
2018-06-07T20:02:40.269Z,18.07
2018-06-07T20:05:10.442Z,18.07
2018-06-07T20:07:41.746Z,17.80
2018-06-07T20:10:11.213Z,18.00
2018-06-07T20:12:40.898Z,16.47
2018-06-07T20:15:10.715Z,16.97
2018-06-07T20:17:40.857Z,17.53
2018-06-07T20:20:10.907Z,16.90
2018-06-07T20:22:42.112Z,15.83
2018-06-07T20:25:13.070Z,16.00
2018-06-07T20:27:45.286Z,16.27
2018-06-07T20:30:15.565Z,15.27
2018-06-07T20:32:47.482Z,14.17
2018-06-07T20:35:18.027Z,17.37
2018-06-07T20:37:49.082Z,15.53
2018-06-07T20:40:18.602Z,15.90
2018-06-07T20:42:49.790Z,15.23
2018-06-07T20:45:19.733Z,16.83
2018-06-07T20:47:50.189Z,16.67
2018-06-07T20:50:21.117Z,17.27
2018-06-07T20:52:51.690Z,15.37
2018-06-07T20:55:20.959Z,14.97
2018-06-07T20:57:52.884Z,15.47
2018-06-07T21:00:23.702Z,15.63
2018-06-07T21:02:54.133Z,15.37
2018-06-07T21:05:23.883Z,17.87
2018-06-07T21:07:55.844Z,16.10
2018-06-07T21:10:26.538Z,17.50
2018-06-07T21:12:57.394Z,16.57
2018-06-07T21:15:26.646Z,16.93
2018-06-07T21:17:58.233Z,19.00
2018-06-07T21:20:27.782Z,17.27
2018-06-07T21:22:59.278Z,15.43
2018-06-07T21:25:28.218Z,16.63
2018-06-07T21:27:58.250Z,15.57
2018-06-07T21:30:28.665Z,17.20
2018-06-07T21:32:58.743Z,17.40
2018-06-07T21:35:28.547Z,17.50
2018-06-07T21:37:57.978Z,17.27
2018-06-07T21:40:27.416Z,16.03
2018-06-07T21:42:57.878Z,19.77
2018-06-07T21:45:28.202Z,18.20
2018-06-07T21:47:58.427Z,16.77
2018-06-07T21:50:28.456Z,17.40
2018-06-07T21:52:59.668Z,16.07
2018-06-07T21:55:29.382Z,16.20
2018-06-07T21:58:00.202Z,15.40
2018-06-07T22:00:31.043Z,15.87
2018-06-07T22:03:01.580Z,14.87
2018-06-07T22:05:31.977Z,15.50
2018-06-07T22:08:03.182Z,15.80
2018-06-07T22:10:33.066Z,13.83
2018-06-07T22:13:04.942Z,14.33
2018-06-07T22:15:36.102Z,15.23
2018-06-07T22:18:07.338Z,15.73
2018-06-07T22:20:37.543Z,15.67
2018-06-07T22:23:08.987Z,16.50
2018-06-07T22:25:39.926Z,14.47
2018-06-07T22:28:09.514Z,14.90
2018-06-07T22:30:40.278Z,13.90
2018-06-07T22:33:10.387Z,14.37
2018-06-07T22:35:40.366Z,14.13
2018-06-07T22:38:09.991Z,14.63
2018-06-07T22:40:40.422Z,13.37
2018-06-07T22:43:11.027Z,14.53
2018-06-07T22:45:42.354Z,13.13
2018-06-07T22:48:11.995Z,13.90
2018-06-07T22:50:42.370Z,13.63
2018-06-07T22:53:12.494Z,13.47
2018-06-07T22:55:42.765Z,14.93
2018-06-07T22:58:13.711Z,14.30
2018-06-07T23:00:45.209Z,14.27
2018-06-07T23:03:15.648Z,14.40
2018-06-07T23:05:46.782Z,13.77
2018-06-07T23:08:17.820Z,14.70
2018-06-07T23:10:48.272Z,14.10
2018-06-07T23:13:18.274Z,15.27
2018-06-07T23:15:48.508Z,16.20
2018-06-07T23:18:18.606Z,18.07
2018-06-07T23:20:47.639Z,16.43
2018-06-07T23:23:17.174Z,15.43
2018-06-07T23:25:46.831Z,16.50
2018-06-07T23:28:17.059Z,17.33
2018-06-07T23:30:47.838Z,17.70
2018-06-07T23:33:19.017Z,18.23
2018-06-07T23:35:49.467Z,17.80
2018-06-07T23:38:20.051Z,18.93
2018-06-07T23:40:49.487Z,18.43
2018-06-07T23:43:19.364Z,18.87
2018-06-07T23:45:50.002Z,17.17
2018-06-07T23:48:21.537Z,17.37
2018-06-07T23:50:51.843Z,21.00
2018-06-07T23:53:22.381Z,18.13
2018-06-07T23:55:53.190Z,17.90
2018-06-07T23:58:23.035Z,19.13
